sensor_id;sensor_type;location;lat;lon;timestamp;P1;durP1;ratioP1;P2;durP2;ratioP2
52868;SDS011;39100;53.480;6.158;2023-07-13T00:01:29;6.50;;;1.58;;
52868;SDS011;39100;53.480;6.158;2023-07-13T00:03:56;4.72;;;0.80;;
52868;SDS011;39100;53.480;6.158;2023-07-13T00:06:22;6.13;;;1.88;;
52868;SDS011;39100;53.480;6.158;2023-07-13T00:08:49;6.60;;;1.83;;
52868;SDS011;39100;53.480;6.158;2023-07-13T00:11:18;3.38;;;0.93;;
52868;SDS011;39100;53.480;6.158;2023-07-13T00:13:43;3.97;;;1.17;;
52868;SDS011;39100;53.480;6.158;2023-07-13T00:16:10;4.15;;;0.95;;
52868;SDS011;39100;53.480;6.158;2023-07-13T00:18:39;4.22;;;1.10;;
52868;SDS011;39100;53.480;6.158;2023-07-13T00:21:05;7.15;;;1.38;;
52868;SDS011;39100;53.480;6.158;2023-07-13T00:23:31;5.40;;;2.38;;
52868;SDS011;39100;53.480;6.158;2023-07-13T00:26:02;2.50;;;0.80;;
52868;SDS011;39100;53.480;6.158;2023-07-13T00:28:29;5.38;;;1.17;;
52868;SDS011;39100;53.480;6.158;2023-07-13T00:30:55;4.88;;;0.90;;
52868;SDS011;39100;53.480;6.158;2023-07-13T00:33:21;8.35;;;1.42;;
52868;SDS011;39100;53.480;6.158;2023-07-13T00:35:48;4.45;;;1.45;;
52868;SDS011;39100;53.480;6.158;2023-07-13T00:38:14;5.88;;;2.05;;
52868;SDS011;39100;53.480;6.158;2023-07-13T00:40:43;7.88;;;2.20;;
52868;SDS011;39100;53.480;6.158;2023-07-13T00:43:11;6.65;;;1.77;;
52868;SDS011;39100;53.480;6.158;2023-07-13T00:48:10;5.03;;;1.42;;
52868;SDS011;39100;53.480;6.158;2023-07-13T00:50:37;5.70;;;1.63;;
52868;SDS011;39100;53.480;6.158;2023-07-13T00:53:04;5.18;;;1.52;;
52868;SDS011;39100;53.480;6.158;2023-07-13T00:55:30;7.30;;;1.73;;
52868;SDS011;39100;53.480;6.158;2023-07-13T00:57:56;3.05;;;1.00;;
52868;SDS011;39100;53.480;6.158;2023-07-13T01:00:23;4.35;;;0.80;;
52868;SDS011;39100;53.480;6.158;2023-07-13T01:02:51;2.85;;;1.00;;
52868;SDS011;39100;53.480;6.158;2023-07-13T01:05:18;4.43;;;0.60;;
52868;SDS011;39100;53.480;6.158;2023-07-13T01:07:46;1.35;;;0.40;;
52868;SDS011;39100;53.480;6.158;2023-07-13T01:10:14;2.40;;;0.32;;
52868;SDS011;39100;53.480;6.158;2023-07-13T01:12:40;1.13;;;0.40;;
52868;SDS011;39100;53.480;6.158;2023-07-13T01:15:33;0.55;;;0.30;;
52868;SDS011;39100;53.480;6.158;2023-07-13T01:18:01;1.75;;;0.30;;
52868;SDS011;39100;53.480;6.158;2023-07-13T01:20:28;1.05;;;0.30;;
52868;SDS011;39100;53.480;6.158;2023-07-13T01:22:54;0.68;;;0.40;;
52868;SDS011;39100;53.480;6.158;2023-07-13T01:25:20;1.95;;;0.30;;
52868;SDS011;39100;53.480;6.158;2023-07-13T01:27:46;0.10;;;0.10;;
52868;SDS011;39100;53.480;6.158;2023-07-13T01:30:12;0.93;;;0.10;;
52868;SDS011;39100;53.480;6.158;2023-07-13T01:32:38;1.58;;;0.90;;
52868;SDS011;39100;53.480;6.158;2023-07-13T01:35:07;1.67;;;0.20;;
52868;SDS011;39100;53.480;6.158;2023-07-13T01:37:33;0.20;;;0.10;;
52868;SDS011;39100;53.480;6.158;2023-07-13T01:40:02;2.88;;;0.30;;
52868;SDS011;39100;53.480;6.158;2023-07-13T01:42:29;1.23;;;0.60;;
52868;SDS011;39100;53.480;6.158;2023-07-13T01:44:55;1.27;;;0.32;;
52868;SDS011;39100;53.480;6.158;2023-07-13T01:47:21;1.20;;;0.60;;
52868;SDS011;39100;53.480;6.158;2023-07-13T01:49:48;1.80;;;0.40;;
52868;SDS011;39100;53.480;6.158;2023-07-13T01:52:15;0.73;;;0.22;;
52868;SDS011;39100;53.480;6.158;2023-07-13T01:54:40;1.38;;;0.38;;
52868;SDS011;39100;53.480;6.158;2023-07-13T01:57:06;0.52;;;0.30;;
52868;SDS011;39100;53.480;6.158;2023-07-13T01:59:32;0.32;;;0.10;;
52868;SDS011;39100;53.480;6.158;2023-07-13T02:01:58;3.20;;;0.20;;
52868;SDS011;39100;53.480;6.158;2023-07-13T02:04:24;1.52;;;0.30;;
52868;SDS011;39100;53.480;6.158;2023-07-13T02:06:50;4.85;;;0.40;;
52868;SDS011;39100;53.480;6.158;2023-07-13T02:09:16;1.33;;;0.10;;
52868;SDS011;39100;53.480;6.158;2023-07-13T02:11:41;0.55;;;0.17;;
52868;SDS011;39100;53.480;6.158;2023-07-13T02:14:07;0.20;;;0.10;;
52868;SDS011;39100;53.480;6.158;2023-07-13T02:16:33;0.77;;;0.20;;
52868;SDS011;39100;53.480;6.158;2023-07-13T02:18:59;0.77;;;0.10;;
52868;SDS011;39100;53.480;6.158;2023-07-13T02:21:25;2.17;;;0.50;;
52868;SDS011;39100;53.480;6.158;2023-07-13T02:23:51;1.50;;;0.22;;
52868;SDS011;39100;53.480;6.158;2023-07-13T02:26:17;0.95;;;0.22;;
52868;SDS011;39100;53.480;6.158;2023-07-13T02:28:43;4.43;;;1.17;;
52868;SDS011;39100;53.480;6.158;2023-07-13T02:31:11;2.70;;;0.40;;
52868;SDS011;39100;53.480;6.158;2023-07-13T02:33:38;2.67;;;0.30;;
52868;SDS011;39100;53.480;6.158;2023-07-13T02:36:04;3.38;;;0.40;;
52868;SDS011;39100;53.480;6.158;2023-07-13T02:38:32;3.47;;;0.50;;
52868;SDS011;39100;53.480;6.158;2023-07-13T02:41:00;2.60;;;0.82;;
52868;SDS011;39100;53.480;6.158;2023-07-13T02:43:26;3.17;;;0.50;;
52868;SDS011;39100;53.480;6.158;2023-07-13T02:45:52;2.00;;;0.30;;
52868;SDS011;39100;53.480;6.158;2023-07-13T02:48:18;2.70;;;0.32;;
52868;SDS011;39100;53.480;6.158;2023-07-13T02:50:44;1.48;;;0.50;;
52868;SDS011;39100;53.480;6.158;2023-07-13T02:53:10;3.05;;;0.50;;
52868;SDS011;39100;53.480;6.158;2023-07-13T02:55:36;2.45;;;0.30;;
52868;SDS011;39100;53.480;6.158;2023-07-13T02:58:02;1.70;;;0.40;;
52868;SDS011;39100;53.480;6.158;2023-07-13T03:00:28;2.63;;;0.55;;
52868;SDS011;39100;53.480;6.158;2023-07-13T03:02:54;4.25;;;0.30;;
52868;SDS011;39100;53.480;6.158;2023-07-13T03:05:22;1.65;;;0.40;;
52868;SDS011;39100;53.480;6.158;2023-07-13T03:07:48;3.45;;;0.60;;
52868;SDS011;39100;53.480;6.158;2023-07-13T03:10:14;1.30;;;0.50;;
52868;SDS011;39100;53.480;6.158;2023-07-13T03:12:41;1.00;;;0.30;;
52868;SDS011;39100;53.480;6.158;2023-07-13T03:15:07;1.15;;;0.20;;
52868;SDS011;39100;53.480;6.158;2023-07-13T03:17:33;5.82;;;1.00;;
52868;SDS011;39100;53.480;6.158;2023-07-13T03:19:59;1.30;;;0.20;;
52868;SDS011;39100;53.480;6.158;2023-07-13T03:22:24;1.70;;;0.38;;
52868;SDS011;39100;53.480;6.158;2023-07-13T03:24:50;1.50;;;0.40;;
52868;SDS011;39100;53.480;6.158;2023-07-13T03:27:17;3.83;;;1.10;;
52868;SDS011;39100;53.480;6.158;2023-07-13T03:29:43;1.38;;;0.40;;
52868;SDS011;39100;53.480;6.158;2023-07-13T03:32:09;2.20;;;0.30;;
52868;SDS011;39100;53.480;6.158;2023-07-13T03:34:35;1.52;;;0.43;;
52868;SDS011;39100;53.480;6.158;2023-07-13T03:37:01;2.90;;;0.63;;
52868;SDS011;39100;53.480;6.158;2023-07-13T03:39:26;2.67;;;0.47;;
52868;SDS011;39100;53.480;6.158;2023-07-13T03:41:52;1.30;;;0.35;;
52868;SDS011;39100;53.480;6.158;2023-07-13T03:44:19;1.40;;;0.35;;
52868;SDS011;39100;53.480;6.158;2023-07-13T03:46:45;1.65;;;0.40;;
52868;SDS011;39100;53.480;6.158;2023-07-13T03:49:11;2.35;;;0.50;;
52868;SDS011;39100;53.480;6.158;2023-07-13T03:51:37;1.80;;;0.60;;
52868;SDS011;39100;53.480;6.158;2023-07-13T03:54:03;1.00;;;0.30;;
52868;SDS011;39100;53.480;6.158;2023-07-13T03:56:29;1.95;;;0.30;;
52868;SDS011;39100;53.480;6.158;2023-07-13T03:58:55;4.57;;;0.38;;
52868;SDS011;39100;53.480;6.158;2023-07-13T04:01:22;3.15;;;0.47;;
52868;SDS011;39100;53.480;6.158;2023-07-13T04:03:50;2.67;;;0.50;;
52868;SDS011;39100;53.480;6.158;2023-07-13T04:06:17;2.03;;;0.43;;
52868;SDS011;39100;53.480;6.158;2023-07-13T04:08:46;2.33;;;0.60;;
52868;SDS011;39100;53.480;6.158;2023-07-13T04:11:14;1.58;;;0.52;;
52868;SDS011;39100;53.480;6.158;2023-07-13T04:13:40;0.40;;;0.40;;
52868;SDS011;39100;53.480;6.158;2023-07-13T04:16:06;1.23;;;0.40;;
52868;SDS011;39100;53.480;6.158;2023-07-13T04:18:32;2.58;;;0.52;;
52868;SDS011;39100;53.480;6.158;2023-07-13T04:20:57;3.08;;;0.40;;
52868;SDS011;39100;53.480;6.158;2023-07-13T04:23:23;1.70;;;0.45;;
52868;SDS011;39100;53.480;6.158;2023-07-13T04:25:51;1.40;;;0.75;;
52868;SDS011;39100;53.480;6.158;2023-07-13T04:28:21;2.10;;;0.50;;
52868;SDS011;39100;53.480;6.158;2023-07-13T04:30:49;1.48;;;0.45;;
52868;SDS011;39100;53.480;6.158;2023-07-13T04:33:15;1.67;;;0.82;;
52868;SDS011;39100;53.480;6.158;2023-07-13T04:35:42;1.23;;;0.50;;
52868;SDS011;39100;53.480;6.158;2023-07-13T04:38:08;1.60;;;0.45;;
52868;SDS011;39100;53.480;6.158;2023-07-13T04:40:36;3.72;;;0.90;;
52868;SDS011;39100;53.480;6.158;2023-07-13T04:43:02;1.27;;;0.45;;
52868;SDS011;39100;53.480;6.158;2023-07-13T04:45:28;1.42;;;0.50;;
52868;SDS011;39100;53.480;6.158;2023-07-13T04:47:54;0.73;;;0.50;;
52868;SDS011;39100;53.480;6.158;2023-07-13T04:50:20;0.73;;;0.47;;
52868;SDS011;39100;53.480;6.158;2023-07-13T04:52:51;2.83;;;0.50;;
52868;SDS011;39100;53.480;6.158;2023-07-13T04:55:17;1.60;;;1.15;;
52868;SDS011;39100;53.480;6.158;2023-07-13T04:57:44;1.33;;;0.65;;
52868;SDS011;39100;53.480;6.158;2023-07-13T05:00:10;2.67;;;0.80;;
52868;SDS011;39100;53.480;6.158;2023-07-13T05:02:37;3.40;;;1.08;;
52868;SDS011;39100;53.480;6.158;2023-07-13T05:05:04;1.35;;;0.47;;
52868;SDS011;39100;53.480;6.158;2023-07-13T05:07:31;3.65;;;0.98;;
52868;SDS011;39100;53.480;6.158;2023-07-13T05:09:58;3.83;;;0.80;;
52868;SDS011;39100;53.480;6.158;2023-07-13T05:12:25;1.77;;;0.60;;
52868;SDS011;39100;53.480;6.158;2023-07-13T05:14:51;3.42;;;0.93;;
52868;SDS011;39100;53.480;6.158;2023-07-13T05:17:17;3.88;;;1.25;;
52868;SDS011;39100;53.480;6.158;2023-07-13T05:19:43;1.90;;;1.13;;
52868;SDS011;39100;53.480;6.158;2023-07-13T05:22:09;1.70;;;0.90;;
52868;SDS011;39100;53.480;6.158;2023-07-13T05:24:35;3.60;;;1.05;;
52868;SDS011;39100;53.480;6.158;2023-07-13T05:27:00;1.92;;;0.93;;
52868;SDS011;39100;53.480;6.158;2023-07-13T05:29:26;1.33;;;0.50;;
52868;SDS011;39100;53.480;6.158;2023-07-13T05:31:52;1.80;;;0.63;;
52868;SDS011;39100;53.480;6.158;2023-07-13T05:34:18;1.65;;;0.82;;
52868;SDS011;39100;53.480;6.158;2023-07-13T05:36:43;1.90;;;0.40;;
52868;SDS011;39100;53.480;6.158;2023-07-13T05:39:09;1.15;;;0.50;;
52868;SDS011;39100;53.480;6.158;2023-07-13T05:41:36;2.70;;;0.55;;
52868;SDS011;39100;53.480;6.158;2023-07-13T05:44:02;3.30;;;0.50;;
52868;SDS011;39100;53.480;6.158;2023-07-13T05:46:28;3.50;;;1.40;;
52868;SDS011;39100;53.480;6.158;2023-07-13T05:48:54;1.95;;;0.28;;
52868;SDS011;39100;53.480;6.158;2023-07-13T05:51:20;2.40;;;0.40;;
52868;SDS011;39100;53.480;6.158;2023-07-13T05:53:46;1.00;;;0.30;;
52868;SDS011;39100;53.480;6.158;2023-07-13T05:56:12;0.68;;;0.32;;
52868;SDS011;39100;53.480;6.158;2023-07-13T05:58:38;2.78;;;0.35;;
52868;SDS011;39100;53.480;6.158;2023-07-13T06:01:04;0.63;;;0.40;;
52868;SDS011;39100;53.480;6.158;2023-07-13T06:03:31;1.17;;;0.30;;
52868;SDS011;39100;53.480;6.158;2023-07-13T06:05:57;3.33;;;0.52;;
52868;SDS011;39100;53.480;6.158;2023-07-13T06:08:25;2.20;;;0.43;;
52868;SDS011;39100;53.480;6.158;2023-07-13T06:10:52;0.82;;;0.40;;
52868;SDS011;39100;53.480;6.158;2023-07-13T06:13:17;2.78;;;0.30;;
52868;SDS011;39100;53.480;6.158;2023-07-13T06:15:48;1.95;;;0.40;;
52868;SDS011;39100;53.480;6.158;2023-07-13T06:18:14;2.85;;;0.55;;
52868;SDS011;39100;53.480;6.158;2023-07-13T06:20:40;0.93;;;0.30;;
52868;SDS011;39100;53.480;6.158;2023-07-13T06:23:06;1.63;;;0.40;;
52868;SDS011;39100;53.480;6.158;2023-07-13T06:25:32;1.88;;;0.50;;
52868;SDS011;39100;53.480;6.158;2023-07-13T06:27:57;6.40;;;0.63;;
52868;SDS011;39100;53.480;6.158;2023-07-13T06:30:23;2.72;;;1.00;;
52868;SDS011;39100;53.480;6.158;2023-07-13T06:32:49;2.65;;;0.50;;
52868;SDS011;39100;53.480;6.158;2023-07-13T06:35:15;0.98;;;0.40;;
52868;SDS011;39100;53.480;6.158;2023-07-13T06:37:41;1.40;;;0.40;;
52868;SDS011;39100;53.480;6.158;2023-07-13T06:40:07;0.82;;;0.40;;
52868;SDS011;39100;53.480;6.158;2023-07-13T06:42:33;3.55;;;0.60;;
52868;SDS011;39100;53.480;6.158;2023-07-13T06:44:59;3.75;;;0.32;;
52868;SDS011;39100;53.480;6.158;2023-07-13T06:47:24;2.60;;;0.50;;
52868;SDS011;39100;53.480;6.158;2023-07-13T06:49:50;3.80;;;0.30;;
52868;SDS011;39100;53.480;6.158;2023-07-13T06:52:16;0.60;;;0.28;;
52868;SDS011;39100;53.480;6.158;2023-07-13T06:54:41;3.97;;;0.57;;
52868;SDS011;39100;53.480;6.158;2023-07-13T06:57:07;1.80;;;0.60;;
52868;SDS011;39100;53.480;6.158;2023-07-13T06:59:33;1.80;;;0.45;;
52868;SDS011;39100;53.480;6.158;2023-07-13T07:01:59;1.33;;;0.40;;
52868;SDS011;39100;53.480;6.158;2023-07-13T07:04:24;1.02;;;0.30;;
52868;SDS011;39100;53.480;6.158;2023-07-13T07:06:50;1.10;;;0.30;;
52868;SDS011;39100;53.480;6.158;2023-07-13T07:09:16;3.45;;;0.50;;
52868;SDS011;39100;53.480;6.158;2023-07-13T07:11:42;2.65;;;0.50;;
52868;SDS011;39100;53.480;6.158;2023-07-13T07:14:08;1.45;;;0.40;;
52868;SDS011;39100;53.480;6.158;2023-07-13T07:16:34;1.45;;;0.35;;
52868;SDS011;39100;53.480;6.158;2023-07-13T07:19:00;0.85;;;0.30;;
52868;SDS011;39100;53.480;6.158;2023-07-13T07:21:25;1.73;;;0.43;;
52868;SDS011;39100;53.480;6.158;2023-07-13T07:23:52;2.58;;;0.40;;
52868;SDS011;39100;53.480;6.158;2023-07-13T07:26:18;3.35;;;0.55;;
52868;SDS011;39100;53.480;6.158;2023-07-13T07:28:44;1.15;;;0.57;;
52868;SDS011;39100;53.480;6.158;2023-07-13T07:31:10;1.00;;;0.50;;
52868;SDS011;39100;53.480;6.158;2023-07-13T07:33:35;2.78;;;0.30;;
52868;SDS011;39100;53.480;6.158;2023-07-13T07:36:01;3.42;;;0.60;;
52868;SDS011;39100;53.480;6.158;2023-07-13T07:38:28;2.15;;;0.30;;
52868;SDS011;39100;53.480;6.158;2023-07-13T07:40:54;2.20;;;0.40;;
52868;SDS011;39100;53.480;6.158;2023-07-13T07:43:20;1.77;;;0.30;;
52868;SDS011;39100;53.480;6.158;2023-07-13T07:45:45;2.83;;;0.43;;
52868;SDS011;39100;53.480;6.158;2023-07-13T07:48:11;1.60;;;0.28;;
52868;SDS011;39100;53.480;6.158;2023-07-13T07:50:38;3.85;;;0.75;;
52868;SDS011;39100;53.480;6.158;2023-07-13T07:53:04;1.30;;;0.68;;
52868;SDS011;39100;53.480;6.158;2023-07-13T07:55:33;1.30;;;0.40;;
52868;SDS011;39100;53.480;6.158;2023-07-13T07:58:02;2.35;;;0.60;;
52868;SDS011;39100;53.480;6.158;2023-07-13T08:00:28;1.98;;;0.55;;
52868;SDS011;39100;53.480;6.158;2023-07-13T08:02:57;0.85;;;0.30;;
52868;SDS011;39100;53.480;6.158;2023-07-13T08:05:23;1.98;;;0.25;;
52868;SDS011;39100;53.480;6.158;2023-07-13T08:07:49;3.28;;;0.52;;
52868;SDS011;39100;53.480;6.158;2023-07-13T08:10:15;0.38;;;0.20;;
52868;SDS011;39100;53.480;6.158;2023-07-13T08:12:41;0.82;;;0.32;;
52868;SDS011;39100;53.480;6.158;2023-07-13T08:15:09;0.85;;;0.30;;
52868;SDS011;39100;53.480;6.158;2023-07-13T08:17:36;1.95;;;0.40;;
52868;SDS011;39100;53.480;6.158;2023-07-13T08:20:02;3.13;;;0.32;;
52868;SDS011;39100;53.480;6.158;2023-07-13T08:22:29;1.45;;;0.43;;
52868;SDS011;39100;53.480;6.158;2023-07-13T08:24:55;2.33;;;0.50;;
52868;SDS011;39100;53.480;6.158;2023-07-13T08:27:21;4.05;;;0.50;;
52868;SDS011;39100;53.480;6.158;2023-07-13T08:29:48;0.52;;;0.30;;
52868;SDS011;39100;53.480;6.158;2023-07-13T08:32:14;1.42;;;0.32;;
52868;SDS011;39100;53.480;6.158;2023-07-13T08:34:40;1.70;;;0.40;;
52868;SDS011;39100;53.480;6.158;2023-07-13T08:37:06;1.75;;;0.20;;
52868;SDS011;39100;53.480;6.158;2023-07-13T08:39:32;1.77;;;1.08;;
52868;SDS011;39100;53.480;6.158;2023-07-13T08:42:04;1.90;;;0.38;;
52868;SDS011;39100;53.480;6.158;2023-07-13T08:44:39;0.90;;;0.40;;
52868;SDS011;39100;53.480;6.158;2023-07-13T08:47:24;1.20;;;0.30;;
52868;SDS011;39100;53.480;6.158;2023-07-13T08:49:51;3.30;;;0.43;;
52868;SDS011;39100;53.480;6.158;2023-07-13T08:54:58;3.95;;;0.50;;
52868;SDS011;39100;53.480;6.158;2023-07-13T08:57:32;1.55;;;0.30;;
52868;SDS011;39100;53.480;6.158;2023-07-13T08:59:59;1.48;;;0.40;;
52868;SDS011;39100;53.480;6.158;2023-07-13T09:05:26;1.27;;;0.30;;
52868;SDS011;39100;53.480;6.158;2023-07-13T09:10:32;2.45;;;0.38;;
52868;SDS011;39100;53.480;6.158;2023-07-13T09:13:19;1.85;;;0.82;;
52868;SDS011;39100;53.480;6.158;2023-07-13T09:16:02;2.08;;;0.40;;
52868;SDS011;39100;53.480;6.158;2023-07-13T09:26:02;2.33;;;0.50;;
52868;SDS011;39100;53.480;6.158;2023-07-13T09:28:49;2.90;;;0.52;;
52868;SDS011;39100;53.480;6.158;2023-07-13T09:31:23;3.30;;;0.40;;
52868;SDS011;39100;53.480;6.158;2023-07-13T09:33:54;2.17;;;1.05;;
52868;SDS011;39100;53.480;6.158;2023-07-13T09:38:56;1.65;;;0.30;;
52868;SDS011;39100;53.480;6.158;2023-07-13T09:41:44;2.20;;;0.30;;
52868;SDS011;39100;53.480;6.158;2023-07-13T09:44:16;0.65;;;0.35;;
52868;SDS011;39100;53.480;6.158;2023-07-13T09:46:47;1.70;;;0.30;;
52868;SDS011;39100;53.480;6.158;2023-07-13T09:49:18;1.95;;;0.60;;
52868;SDS011;39100;53.480;6.158;2023-07-13T09:51:44;0.40;;;0.20;;
52868;SDS011;39100;53.480;6.158;2023-07-13T09:54:23;0.40;;;0.10;;
52868;SDS011;39100;53.480;6.158;2023-07-13T09:56:56;2.45;;;0.28;;
52868;SDS011;39100;53.480;6.158;2023-07-13T09:59:26;0.63;;;0.22;;
52868;SDS011;39100;53.480;6.158;2023-07-13T10:02:22;1.37;;;0.67;;
52868;SDS011;39100;53.480;6.158;2023-07-13T10:05:01;1.20;;;0.20;;
52868;SDS011;39100;53.480;6.158;2023-07-13T10:07:30;0.75;;;0.40;;
52868;SDS011;39100;53.480;6.158;2023-07-13T10:09:57;0.55;;;0.25;;
52868;SDS011;39100;53.480;6.158;2023-07-13T10:12:29;1.83;;;0.17;;
52868;SDS011;39100;53.480;6.158;2023-07-13T10:17:29;1.60;;;0.28;;
52868;SDS011;39100;53.480;6.158;2023-07-13T10:20:03;1.70;;;0.30;;
52868;SDS011;39100;53.480;6.158;2023-07-13T10:22:36;4.22;;;0.25;;
52868;SDS011;39100;53.480;6.158;2023-07-13T10:25:17;0.80;;;0.40;;
52868;SDS011;39100;53.480;6.158;2023-07-13T10:27:45;1.92;;;0.38;;
52868;SDS011;39100;53.480;6.158;2023-07-13T10:30:18;1.23;;;0.55;;
52868;SDS011;39100;53.480;6.158;2023-07-13T10:32:50;1.05;;;0.65;;
52868;SDS011;39100;53.480;6.158;2023-07-13T10:35:18;1.45;;;0.30;;
52868;SDS011;39100;53.480;6.158;2023-07-13T10:37:50;3.03;;;0.40;;
52868;SDS011;39100;53.480;6.158;2023-07-13T10:40:41;1.63;;;0.70;;
52868;SDS011;39100;53.480;6.158;2023-07-13T10:43:16;1.85;;;0.38;;
52868;SDS011;39100;53.480;6.158;2023-07-13T10:45:47;1.55;;;0.40;;
52868;SDS011;39100;53.480;6.158;2023-07-13T10:48:15;2.85;;;0.40;;
52868;SDS011;39100;53.480;6.158;2023-07-13T10:50:43;2.80;;;0.70;;
52868;SDS011;39100;53.480;6.158;2023-07-13T10:53:22;1.77;;;0.50;;
52868;SDS011;39100;53.480;6.158;2023-07-13T10:55:59;1.67;;;0.40;;
52868;SDS011;39100;53.480;6.158;2023-07-13T10:58:34;1.08;;;0.50;;
52868;SDS011;39100;53.480;6.158;2023-07-13T11:01:07;1.17;;;0.25;;
52868;SDS011;39100;53.480;6.158;2023-07-13T11:03:34;1.60;;;0.30;;
52868;SDS011;39100;53.480;6.158;2023-07-13T11:06:09;2.28;;;0.60;;
52868;SDS011;39100;53.480;6.158;2023-07-13T11:08:50;2.58;;;0.70;;
52868;SDS011;39100;53.480;6.158;2023-07-13T11:18:51;0.85;;;0.40;;
52868;SDS011;39100;53.480;6.158;2023-07-13T11:21:41;1.05;;;0.45;;
52868;SDS011;39100;53.480;6.158;2023-07-13T11:27:32;0.77;;;0.40;;
52868;SDS011;39100;53.480;6.158;2023-07-13T11:30:32;2.83;;;0.40;;
52868;SDS011;39100;53.480;6.158;2023-07-13T11:35:51;1.13;;;0.40;;
52868;SDS011;39100;53.480;6.158;2023-07-13T11:41:26;2.88;;;0.73;;
52868;SDS011;39100;53.480;6.158;2023-07-13T11:44:01;3.13;;;0.80;;
52868;SDS011;39100;53.480;6.158;2023-07-13T11:46:37;2.35;;;0.50;;
52868;SDS011;39100;53.480;6.158;2023-07-13T11:49:04;2.97;;;0.50;;
52868;SDS011;39100;53.480;6.158;2023-07-13T11:51:33;1.15;;;0.47;;
52868;SDS011;39100;53.480;6.158;2023-07-13T11:54:06;1.63;;;0.52;;
52868;SDS011;39100;53.480;6.158;2023-07-13T11:56:42;1.33;;;0.47;;
52868;SDS011;39100;53.480;6.158;2023-07-13T11:59:10;3.67;;;1.05;;
52868;SDS011;39100;53.480;6.158;2023-07-13T12:01:41;3.25;;;0.68;;
52868;SDS011;39100;53.480;6.158;2023-07-13T12:04:47;5.10;;;0.63;;
52868;SDS011;39100;53.480;6.158;2023-07-13T12:07:14;3.83;;;0.55;;
52868;SDS011;39100;53.480;6.158;2023-07-13T12:09:42;2.60;;;1.17;;
52868;SDS011;39100;53.480;6.158;2023-07-13T12:12:12;0.85;;;0.40;;
52868;SDS011;39100;53.480;6.158;2023-07-13T12:14:39;3.70;;;0.80;;
52868;SDS011;39100;53.480;6.158;2023-07-13T12:17:15;0.85;;;0.40;;
52868;SDS011;39100;53.480;6.158;2023-07-13T12:19:45;1.63;;;0.50;;
52868;SDS011;39100;53.480;6.158;2023-07-13T12:22:12;3.38;;;0.55;;
52868;SDS011;39100;53.480;6.158;2023-07-13T12:24:42;3.42;;;0.52;;
52868;SDS011;39100;53.480;6.158;2023-07-13T12:27:27;4.80;;;0.77;;
52868;SDS011;39100;53.480;6.158;2023-07-13T12:32:24;3.60;;;0.70;;
52868;SDS011;39100;53.480;6.158;2023-07-13T12:34:52;1.55;;;0.65;;
52868;SDS011;39100;53.480;6.158;2023-07-13T12:37:23;0.98;;;0.50;;
52868;SDS011;39100;53.480;6.158;2023-07-13T12:39:51;3.67;;;0.85;;
52868;SDS011;39100;53.480;6.158;2023-07-13T12:44:42;6.45;;;0.82;;
52868;SDS011;39100;53.480;6.158;2023-07-13T12:47:10;2.22;;;1.00;;
52868;SDS011;39100;53.480;6.158;2023-07-13T12:49:42;3.88;;;0.93;;
52868;SDS011;39100;53.480;6.158;2023-07-13T12:52:16;2.80;;;0.60;;
52868;SDS011;39100;53.480;6.158;2023-07-13T12:54:54;2.78;;;0.85;;
52868;SDS011;39100;53.480;6.158;2023-07-13T12:57:25;3.70;;;0.95;;
52868;SDS011;39100;53.480;6.158;2023-07-13T12:59:54;1.23;;;0.50;;
52868;SDS011;39100;53.480;6.158;2023-07-13T13:02:28;3.88;;;1.02;;
52868;SDS011;39100;53.480;6.158;2023-07-13T13:04:56;2.67;;;1.10;;
52868;SDS011;39100;53.480;6.158;2023-07-13T13:07:23;2.78;;;1.00;;
52868;SDS011;39100;53.480;6.158;2023-07-13T13:09:49;4.65;;;0.88;;
52868;SDS011;39100;53.480;6.158;2023-07-13T13:12:15;3.30;;;1.20;;
52868;SDS011;39100;53.480;6.158;2023-07-13T13:14:42;5.30;;;1.55;;
52868;SDS011;39100;53.480;6.158;2023-07-13T13:17:22;4.00;;;1.15;;
52868;SDS011;39100;53.480;6.158;2023-07-13T13:19:55;6.70;;;1.20;;
52868;SDS011;39100;53.480;6.158;2023-07-13T13:22:22;4.75;;;1.02;;
52868;SDS011;39100;53.480;6.158;2023-07-13T13:24:48;1.63;;;0.77;;
52868;SDS011;39100;53.480;6.158;2023-07-13T13:27:15;4.30;;;1.10;;
52868;SDS011;39100;53.480;6.158;2023-07-13T13:29:49;4.70;;;0.93;;
52868;SDS011;39100;53.480;6.158;2023-07-13T13:32:17;2.38;;;0.88;;
52868;SDS011;39100;53.480;6.158;2023-07-13T13:34:44;3.38;;;0.95;;
52868;SDS011;39100;53.480;6.158;2023-07-13T13:37:20;2.63;;;0.88;;
52868;SDS011;39100;53.480;6.158;2023-07-13T13:39:48;4.22;;;1.13;;
52868;SDS011;39100;53.480;6.158;2023-07-13T13:42:16;3.75;;;1.25;;
52868;SDS011;39100;53.480;6.158;2023-07-13T13:44:42;2.10;;;0.75;;
52868;SDS011;39100;53.480;6.158;2023-07-13T13:47:13;4.60;;;1.15;;
52868;SDS011;39100;53.480;6.158;2023-07-13T13:50:13;1.73;;;0.82;;
52868;SDS011;39100;53.480;6.158;2023-07-13T13:52:41;4.38;;;1.00;;
52868;SDS011;39100;53.480;6.158;2023-07-13T13:55:14;4.00;;;0.88;;
52868;SDS011;39100;53.480;6.158;2023-07-13T13:57:43;3.60;;;0.88;;
52868;SDS011;39100;53.480;6.158;2023-07-13T14:00:09;2.60;;;1.00;;
52868;SDS011;39100;53.480;6.158;2023-07-13T14:02:40;3.67;;;0.98;;
52868;SDS011;39100;53.480;6.158;2023-07-13T14:05:11;1.50;;;0.73;;
52868;SDS011;39100;53.480;6.158;2023-07-13T14:07:38;1.25;;;0.52;;
52868;SDS011;39100;53.480;6.158;2023-07-13T14:10:08;4.30;;;0.80;;
52868;SDS011;39100;53.480;6.158;2023-07-13T14:12:41;2.47;;;1.05;;
52868;SDS011;39100;53.480;6.158;2023-07-13T14:15:31;3.40;;;1.25;;
52868;SDS011;39100;53.480;6.158;2023-07-13T14:17:59;1.77;;;0.98;;
52868;SDS011;39100;53.480;6.158;2023-07-13T14:20:25;2.60;;;1.50;;
52868;SDS011;39100;53.480;6.158;2023-07-13T14:22:51;7.55;;;1.45;;
52868;SDS011;39100;53.480;6.158;2023-07-13T14:25:18;4.18;;;0.90;;
52868;SDS011;39100;53.480;6.158;2023-07-13T14:27:45;7.55;;;1.15;;
52868;SDS011;39100;53.480;6.158;2023-07-13T14:30:15;6.53;;;1.15;;
52868;SDS011;39100;53.480;6.158;2023-07-13T14:32:43;3.28;;;0.90;;
52868;SDS011;39100;53.480;6.158;2023-07-13T14:35:13;2.85;;;0.80;;
52868;SDS011;39100;53.480;6.158;2023-07-13T14:37:40;3.15;;;0.88;;
52868;SDS011;39100;53.480;6.158;2023-07-13T14:40:13;4.78;;;2.08;;
52868;SDS011;39100;53.480;6.158;2023-07-13T14:42:40;3.80;;;1.17;;
52868;SDS011;39100;53.480;6.158;2023-07-13T14:45:12;5.30;;;1.23;;
52868;SDS011;39100;53.480;6.158;2023-07-13T14:47:39;3.90;;;1.05;;
52868;SDS011;39100;53.480;6.158;2023-07-13T14:50:05;3.28;;;0.70;;
52868;SDS011;39100;53.480;6.158;2023-07-13T14:52:36;5.75;;;1.10;;
52868;SDS011;39100;53.480;6.158;2023-07-13T14:55:02;1.50;;;0.70;;
52868;SDS011;39100;53.480;6.158;2023-07-13T14:57:28;2.45;;;0.82;;
52868;SDS011;39100;53.480;6.158;2023-07-13T14:59:54;3.67;;;0.70;;
52868;SDS011;39100;53.480;6.158;2023-07-13T15:04:52;2.50;;;0.95;;
52868;SDS011;39100;53.480;6.158;2023-07-13T15:07:19;7.28;;;1.63;;
52868;SDS011;39100;53.480;6.158;2023-07-13T15:09:46;2.65;;;1.05;;
52868;SDS011;39100;53.480;6.158;2023-07-13T15:12:13;1.85;;;0.70;;
52868;SDS011;39100;53.480;6.158;2023-07-13T15:14:39;2.88;;;0.75;;
52868;SDS011;39100;53.480;6.158;2023-07-13T15:17:08;3.88;;;0.80;;
52868;SDS011;39100;53.480;6.158;2023-07-13T15:19:49;6.25;;;1.35;;
52868;SDS011;39100;53.480;6.158;2023-07-13T15:22:14;1.98;;;0.77;;
52868;SDS011;39100;53.480;6.158;2023-07-13T15:24:40;1.85;;;0.80;;
52868;SDS011;39100;53.480;6.158;2023-07-13T15:27:10;2.15;;;0.77;;
52868;SDS011;39100;53.480;6.158;2023-07-13T15:29:37;4.10;;;0.90;;
52868;SDS011;39100;53.480;6.158;2023-07-13T15:32:03;1.00;;;0.68;;
52868;SDS011;39100;53.480;6.158;2023-07-13T15:34:30;0.85;;;0.60;;
52868;SDS011;39100;53.480;6.158;2023-07-13T15:36:56;1.65;;;0.60;;
52868;SDS011;39100;53.480;6.158;2023-07-13T15:39:22;2.58;;;0.50;;
52868;SDS011;39100;53.480;6.158;2023-07-13T15:41:48;1.30;;;0.60;;
52868;SDS011;39100;53.480;6.158;2023-07-13T15:44:27;0.98;;;0.70;;